Time;durP1;ratioP1;P1;durP2;ratioP2;P2;SDS_P1;SDS_P2;PMS_P1;PMS_P2;Temp;Humidity;BMP_temperature;BMP_pressure;BME280_temperature;BME280_humidity;BME280_pressure;Samples;Min_cycle;Max_cycle;Signal;HPM_P1;HPM_P2
2021/07/19 00:01:54;;;;;;;6.07;3.70;;;;;;;21.28;67.18;100965.41;5089072;28;20024;-82
2021/07/19 00:04:44;;;;;;;4.68;3.42;;;;;;;21.22;67.41;100969.66;5108589;28;20035;-82
2021/07/19 00:07:30;;;;;;;5.20;3.20;;;;;;;21.20;66.90;100975.66;5085882;28;20027;-81
2021/07/19 00:10:16;;;;;;;5.63;3.65;;;;;;;21.16;67.12;100963.44;5087526;28;20035;-81
2021/07/19 00:13:04;;;;;;;6.22;4.15;;;;;;;21.13;67.74;100976.25;5086758;28;20047;-80
2021/07/19 00:15:50;;;;;;;4.82;3.40;;;;;;;21.09;68.19;100963.19;5077656;28;20054;-81
2021/07/19 00:18:36;;;;;;;4.68;3.70;;;;;;;21.04;68.21;100961.47;5101257;28;20091;-81
2021/07/19 00:21:22;;;;;;;6.28;3.80;;;;;;;21.01;69.05;100965.00;5099421;28;20035;-81
2021/07/19 00:24:08;;;;;;;4.78;3.70;;;;;;;20.95;67.32;100966.41;5101211;28;20031;-80
2021/07/19 00:26:53;;;;;;;5.05;3.65;;;;;;;20.95;68.56;100963.59;5082516;28;20046;-81
2021/07/19 00:29:39;;;;;;;5.40;4.25;;;;;;;20.93;68.50;100966.75;5102420;28;20400;-80
2021/07/19 00:32:25;;;;;;;5.68;3.65;;;;;;;20.88;68.37;100961.34;5083794;28;20031;-80
2021/07/19 00:35:11;;;;;;;4.43;3.40;;;;;;;20.82;68.28;100959.13;5075367;28;20043;-80
2021/07/19 00:37:57;;;;;;;5.35;3.90;;;;;;;20.81;68.98;100963.09;5066120;28;20133;-81
2021/07/19 00:40:43;;;;;;;7.03;3.85;;;;;;;20.75;69.65;100960.53;5095464;28;20055;-81
2021/07/19 00:43:29;;;;;;;4.28;3.20;;;;;;;20.73;68.82;100956.41;5082532;28;20035;-79
2021/07/19 00:46:15;;;;;;;4.63;3.67;;;;;;;20.70;68.29;100957.94;5071890;28;20635;-80
2021/07/19 00:49:00;;;;;;;5.45;3.72;;;;;;;20.68;68.42;100963.09;5078843;28;20040;-81
2021/07/19 00:51:46;;;;;;;4.10;3.30;;;;;;;20.69;67.92;100963.91;5082874;28;20040;-80
2021/07/19 00:54:33;;;;;;;5.22;4.05;;;;;;;20.63;69.05;100963.31;5072888;28;20123;-80
2021/07/19 00:57:19;;;;;;;5.03;3.47;;;;;;;20.56;68.15;100960.28;5083642;28;20040;-80
2021/07/19 01:00:09;;;;;;;6.25;3.70;;;;;;;20.51;68.84;100957.66;5070996;28;20031;-80
2021/07/19 01:02:55;;;;;;;6.10;3.78;;;;;;;20.47;70.02;100959.50;5087561;28;21545;-79
2021/07/19 01:05:42;;;;;;;5.30;3.92;;;;;;;20.47;70.59;100965.16;5071156;28;20047;-79
2021/07/19 01:08:28;;;;;;;4.35;3.70;;;;;;;20.39;69.64;100957.63;5071585;28;20044;-80
2021/07/19 01:11:14;;;;;;;4.40;3.58;;;;;;;20.39;70.17;100957.63;5083238;28;20108;-79
2021/07/19 01:13:59;;;;;;;6.97;4.43;;;;;;;20.35;71.85;100965.97;5097831;27;20069;-80
2021/07/19 01:16:45;;;;;;;4.05;3.45;;;;;;;20.33;70.52;100962.66;5098641;28;20035;-80
2021/07/19 01:19:32;;;;;;;5.80;4.07;;;;;;;20.30;71.31;100961.34;5090845;28;20087;-80
2021/07/19 01:22:27;;;;;;;6.28;3.67;;;;;;;20.26;69.86;100957.59;5074909;28;20043;-80
2021/07/19 01:25:34;;;;;;;6.43;4.10;;;;;;;20.23;70.84;100949.84;5086192;28;20027;-80
2021/07/19 01:28:29;;;;;;;5.00;3.80;;;;;;;20.24;70.04;100950.66;5092244;28;20558;-80
2021/07/19 01:31:24;;;;;;;5.38;3.90;;;;;;;20.19;70.50;100957.34;5100450;28;20089;-80
2021/07/19 01:34:12;;;;;;;5.80;3.83;;;;;;;20.15;69.47;100949.94;5084504;28;20027;-80
2021/07/19 01:37:02;;;;;;;5.65;3.10;;;;;;;20.15;69.71;100953.59;5085712;28;20035;-80
2021/07/19 01:39:47;;;;;;;5.55;3.85;;;;;;;20.09;69.57;100949.34;5097297;28;20040;-80
2021/07/19 01:42:35;;;;;;;6.78;4.18;;;;;;;20.08;69.88;100950.50;5094187;28;20028;-80
2021/07/19 01:45:21;;;;;;;5.60;3.97;;;;;;;20.04;70.24;100943.91;5074474;28;20039;-80
2021/07/19 01:48:08;;;;;;;5.63;4.22;;;;;;;20.01;71.72;100950.25;5082906;28;20041;-80
2021/07/19 01:50:53;;;;;;;7.43;3.85;;;;;;;19.98;70.51;100945.31;5064770;28;20115;-80
2021/07/19 01:53:41;;;;;;;5.65;3.72;;;;;;;19.97;70.85;100936.00;5078288;28;20036;-80
2021/07/19 01:56:27;;;;;;;5.10;3.65;;;;;;;19.96;70.71;100942.00;5076058;28;20520;-81
2021/07/19 01:59:13;;;;;;;6.93;3.50;;;;;;;19.95;70.93;100951.66;5078844;28;20551;-80
2021/07/19 02:01:59;;;;;;;5.13;3.53;;;;;;;19.93;70.50;100945.53;5065612;28;20119;-81
2021/07/19 02:04:44;;;;;;;5.10;3.50;;;;;;;19.91;71.10;100948.69;5058873;28;20028;-80
2021/07/19 02:07:30;;;;;;;5.18;3.88;;;;;;;19.85;70.91;100945.25;5085466;28;20044;-80
2021/07/19 02:10:16;;;;;;;4.53;3.70;;;;;;;19.85;70.38;100945.25;5089851;28;20032;-80
2021/07/19 02:13:04;;;;;;;5.43;3.83;;;;;;;19.80;70.33;100953.91;5068097;28;20492;-79
2021/07/19 02:15:52;;;;;;;3.83;3.28;;;;;;;19.75;70.84;100945.69;5078640;28;20537;-79
2021/07/19 02:18:39;;;;;;;4.20;3.70;;;;;;;19.73;70.54;100948.03;5076857;28;20040;-79
2021/07/19 02:21:25;;;;;;;6.22;3.80;;;;;;;19.71;71.38;100938.28;5090491;28;20435;-79
2021/07/19 02:24:11;;;;;;;6.80;3.80;;;;;;;19.68;71.17;100955.88;5094198;28;20362;-79
2021/07/19 02:26:57;;;;;;;6.45;4.18;;;;;;;19.60;71.74;100946.28;5082104;28;20082;-80
2021/07/19 02:29:42;;;;;;;6.22;3.78;;;;;;;19.58;70.58;100945.81;5077037;28;20064;-79
2021/07/19 02:32:28;;;;;;;4.50;3.72;;;;;;;19.57;71.23;100944.16;5059233;28;20074;-80
2021/07/19 02:35:14;;;;;;;5.20;3.90;;;;;;;19.56;70.97;100946.16;5081688;28;20032;-80
2021/07/19 02:38:03;;;;;;;5.80;3.78;;;;;;;19.53;70.30;100938.41;5075412;28;20519;-79
2021/07/19 02:40:50;;;;;;;4.70;3.65;;;;;;;19.52;70.12;100950.00;5081028;28;20412;-80
2021/07/19 02:43:36;;;;;;;6.45;4.07;;;;;;;19.48;71.72;100935.78;5078035;28;20127;-79
2021/07/19 02:46:23;;;;;;;4.50;3.35;;;;;;;19.46;70.35;100945.75;5070358;28;20412;-80
2021/07/19 02:49:10;;;;;;;7.05;4.00;;;;;;;19.44;70.67;100948.91;5053181;28;20033;-80
2021/07/19 02:51:56;;;;;;;4.88;3.72;;;;;;;19.42;70.79;100951.25;5069500;27;20035;-80
2021/07/19 02:54:42;;;;;;;4.88;3.47;;;;;;;19.39;70.47;100952.75;5074946;28;20032;-80
2021/07/19 02:57:28;;;;;;;5.10;4.25;;;;;;;19.38;71.19;100953.91;5098752;28;20114;-80
2021/07/19 03:00:15;;;;;;;4.53;3.80;;;;;;;19.37;70.58;100955.09;5098021;28;20032;-81
2021/07/19 03:03:06;;;;;;;4.72;3.65;;;;;;;19.37;70.68;100954.28;5085507;27;20043;-80
2021/07/19 03:06:09;;;;;;;7.78;3.50;;;;;;;19.33;70.52;100948.47;5087000;28;20040;-80
2021/07/19 03:08:55;;;;;;;5.22;3.83;;;;;;;19.27;70.78;100944.22;5095763;28;20035;-80
2021/07/19 03:11:48;;;;;;;5.10;3.78;;;;;;;19.27;70.80;100938.59;5092555;28;20036;-80
2021/07/19 03:14:34;;;;;;;4.65;3.80;;;;;;;19.26;71.40;100939.78;5071212;27;20052;-80
2021/07/19 03:17:20;;;;;;;5.38;4.00;;;;;;;19.21;71.16;100942.78;5078026;28;20038;-80
2021/07/19 03:20:07;;;;;;;5.10;3.80;;;;;;;19.20;70.97;100944.78;5092677;28;21835;-80
2021/07/19 03:22:52;;;;;;;3.65;3.20;;;;;;;19.18;70.85;100940.66;5087299;27;20103;-79
2021/07/19 03:25:38;;;;;;;6.18;3.42;;;;;;;19.16;70.57;100938.16;5075223;28;20082;-80
2021/07/19 03:28:24;;;;;;;5.25;3.50;;;;;;;19.14;70.43;100931.25;5099527;28;20031;-80
2021/07/19 03:31:10;;;;;;;4.40;3.95;;;;;;;19.08;71.27;100933.41;5097281;28;20031;-80
2021/07/19 03:33:56;;;;;;;5.00;3.95;;;;;;;19.07;71.04;100940.22;5087447;28;20254;-80
2021/07/19 03:36:41;;;;;;;5.10;4.28;;;;;;;19.04;71.91;100940.09;5088588;28;20437;-80
2021/07/19 03:39:27;;;;;;;5.07;3.88;;;;;;;19.02;71.73;100937.59;5085729;28;20484;-80
2021/07/19 03:42:13;;;;;;;4.82;4.05;;;;;;;18.96;71.50;100948.25;5101430;27;20178;-80
2021/07/19 03:44:59;;;;;;;5.63;3.35;;;;;;;18.95;71.06;100945.78;5099173;28;20454;-79
2021/07/19 03:47:45;;;;;;;5.10;4.32;;;;;;;18.92;71.87;100941.66;5098311;28;20153;-79
2021/07/19 03:50:31;;;;;;;4.28;3.88;;;;;;;18.85;71.63;100943.34;5083717;28;20058;-80
2021/07/19 03:53:17;;;;;;;6.10;4.45;;;;;;;18.79;72.63;100936.28;5100077;27;20066;-80
2021/07/19 03:56:03;;;;;;;6.03;4.60;;;;;;;18.80;73.97;100937.91;5099783;28;20039;-80
2021/07/19 03:58:49;;;;;;;5.60;3.97;;;;;;;18.79;72.82;100942.72;5112016;28;20058;-81
2021/07/19 04:01:35;;;;;;;5.78;4.50;;;;;;;18.77;73.11;100938.59;5085536;27;20091;-80
2021/07/19 04:04:39;;;;;;;4.53;4.13;;;;;;;18.73;73.84;100944.88;5097862;28;20459;-80
2021/07/19 04:07:24;;;;;;;;;;;;;;;18.71;73.18;100937.94;5115399;27;20035;-81
2021/07/19 04:10:12;;;;;;;7.25;4.55;;;;;;;18.66;73.62;100938.94;5105843;28;20330;-81
2021/07/19 04:12:59;;;;;;;8.82;5.10;;;;;;;18.67;72.75;100940.59;5090644;28;20074;-81
2021/07/19 04:15:50;;;;;;;4.82;3.67;;;;;;;18.65;73.13;100940.09;5114543;28;20057;-80
2021/07/19 04:18:36;;;;;;;5.72;4.10;;;;;;;18.67;72.67;100942.59;5080912;28;20032;-81
2021/07/19 04:21:21;;;;;;;5.35;4.05;;;;;;;18.64;72.30;100941.28;5082635;28;20726;-81
2021/07/19 04:24:08;;;;;;;7.70;4.85;;;;;;;18.66;73.11;100938.13;5073384;28;20038;-81
2021/07/19 04:26:54;;;;;;;6.15;4.20;;;;;;;18.67;72.25;100939.78;5086352;28;20680;-81
2021/07/19 04:29:39;;;;;;;5.03;3.92;;;;;;;18.67;72.45;100939.78;5080180;27;20097;-81
2021/07/19 04:32:25;;;;;;;7.10;4.43;;;;;;;18.64;72.91;100932.84;5064496;28;20104;-81
2021/07/19 04:35:20;;;;;;;6.63;4.25;;;;;;;18.62;72.67;100937.97;5092131;28;20048;-81
2021/07/19 04:38:06;;;;;;;5.43;4.20;;;;;;;18.61;72.75;100924.22;5086492;28;20039;-81
2021/07/19 04:40:54;;;;;;;4.68;4.13;;;;;;;18.63;73.13;100921.91;5068697;28;20027;-76
2021/07/19 04:43:40;;;;;;;6.30;3.92;;;;;;;18.64;72.58;100924.41;5097623;28;20556;-76
2021/07/19 04:46:25;;;;;;;5.25;4.10;;;;;;;18.65;73.99;100919.59;5098279;28;20102;-79
2021/07/19 04:49:11;;;;;;;6.38;4.10;;;;;;;18.66;73.61;100918.41;5073290;28;20040;-80
2021/07/19 04:51:57;;;;;;;6.78;4.30;;;;;;;18.65;73.13;100923.22;5079287;28;20498;-76
2021/07/19 04:54:43;;;;;;;5.20;3.92;;;;;;;18.68;71.96;100924.53;5112942;28;20467;-79
2021/07/19 04:57:29;;;;;;;5.22;4.03;;;;;;;18.72;72.26;100922.69;5094538;28;20460;-79
2021/07/19 05:00:14;;;;;;;7.78;4.63;;;;;;;18.78;75.00;100923.34;5093163;28;20597;-79
2021/07/19 05:03:01;;;;;;;4.65;3.92;;;;;;;18.85;73.92;100920.84;5084662;28;20043;-78
2021/07/19 05:05:47;;;;;;;6.88;5.85;;;;;;;18.92;78.60;100919.13;5086082;28;20081;-79
2021/07/19 05:08:33;;;;;;;7.47;4.38;;;;;;;19.01;75.18;100912.63;5072029;27;20038;-79
2021/07/19 05:11:20;;;;;;;7.43;4.50;;;;;;;19.10;73.64;100921.84;5073345;28;20043;-69
2021/07/19 05:14:06;;;;;;;7.10;4.40;;;;;;;19.19;73.80;100919.78;5102118;28;20039;-69
2021/07/19 05:16:52;;;;;;;5.80;4.07;;;;;;;19.30;73.10;100917.38;5079431;28;20032;-69
2021/07/19 05:19:38;;;;;;;5.35;4.00;;;;;;;19.40;71.77;100923.41;5079171;28;20036;-69
2021/07/19 05:22:24;;;;;;;5.15;4.07;;;;;;;19.52;71.18;100917.03;5082025;28;20088;-68
2021/07/19 05:25:10;;;;;;;4.35;3.95;;;;;;;19.64;70.92;100917.09;5084686;28;20040;-68
2021/07/19 05:27:58;;;;;;;6.75;4.35;;;;;;;19.76;70.33;100921.16;5088736;28;20046;-69
2021/07/19 05:30:48;;;;;;;4.10;3.70;;;;;;;19.89;70.65;100922.00;5109246;28;20037;-69
2021/07/19 05:33:34;;;;;;;6.25;3.90;;;;;;;20.03;70.13;100916.88;5101913;28;20043;-69
2021/07/19 05:36:20;;;;;;;5.03;3.80;;;;;;;20.17;69.90;100919.38;5099304;28;20735;-69
2021/07/19 05:39:06;;;;;;;8.10;3.80;;;;;;;20.33;69.76;100922.34;5074178;27;20034;-69
2021/07/19 05:41:52;;;;;;;6.10;3.78;;;;;;;20.47;69.54;100914.38;5088282;28;20085;-69
2021/07/19 05:44:38;;;;;;;4.45;3.45;;;;;;;20.64;68.91;100922.63;5072557;28;20034;-69
2021/07/19 05:47:24;;;;;;;5.50;3.55;;;;;;;20.82;68.95;100919.59;5101337;28;20119;-69
2021/07/19 05:50:10;;;;;;;5.28;3.83;;;;;;;21.00;68.47;100923.78;5074431;28;20056;-69
2021/07/19 05:52:56;;;;;;;5.38;3.92;;;;;;;21.18;68.36;100919.53;5101441;28;20042;-68
2021/07/19 05:55:43;;;;;;;5.18;3.80;;;;;;;21.37;68.06;100916.13;5099373;28;20042;-69
2021/07/19 05:58:29;;;;;;;4.30;3.83;;;;;;;21.57;67.87;100913.47;5088463;28;20050;-68
2021/07/19 06:01:14;;;;;;;5.55;3.80;;;;;;;21.76;67.98;100918.44;5101718;27;20755;-68
2021/07/19 06:04:00;;;;;;;8.13;4.05;;;;;;;21.95;69.21;100921.38;5086550;28;20442;-69
2021/07/19 06:06:46;;;;;;;5.97;4.05;;;;;;;22.18;67.70;100915.19;5078117;28;20050;-68
2021/07/19 06:09:32;;;;;;;7.53;3.83;;;;;;;22.35;66.90;100920.50;5090804;28;20046;-68
2021/07/19 06:12:17;;;;;;;6.47;3.78;;;;;;;22.55;67.34;100915.75;5085864;28;20036;-69
2021/07/19 06:15:04;;;;;;;6.88;3.72;;;;;;;22.72;67.14;100921.00;5084250;28;20039;-69
2021/07/19 06:17:50;;;;;;;7.00;4.15;;;;;;;22.93;67.28;100919.91;5087248;27;20588;-68
2021/07/19 06:20:36;;;;;;;7.82;5.15;;;;;;;23.06;67.89;100912.13;5093019;28;20028;-68
2021/07/19 06:23:22;;;;;;;5.00;4.50;;;;;;;23.22;67.48;100915.75;5096576;28;20088;-69
2021/07/19 06:26:10;;;;;;;5.57;4.55;;;;;;;23.41;66.31;100918.59;5097070;27;20038;-74
2021/07/19 06:28:56;;;;;;;5.82;4.15;;;;;;;23.55;67.01;100915.25;5074370;27;20115;-76
2021/07/19 06:31:42;;;;;;;5.60;4.30;;;;;;;23.72;66.69;100916.84;5088604;28;20039;-78
2021/07/19 06:34:28;;;;;;;6.25;3.75;;;;;;;23.88;66.08;100913.09;5095024;28;20050;-77
2021/07/19 06:37:14;;;;;;;5.22;3.58;;;;;;;24.00;65.29;100912.94;5087419;27;20032;-78
2021/07/19 06:40:00;;;;;;;7.32;4.63;;;;;;;24.18;64.91;100905.59;5085886;28;20088;-77
2021/07/19 06:42:46;;;;;;;7.95;4.20;;;;;;;24.28;65.63;100907.78;5084599;28;20040;-78
2021/07/19 06:45:32;;;;;;;7.90;4.88;;;;;;;24.43;65.54;100905.19;5084854;28;20038;-77
2021/07/19 06:48:19;;;;;;;6.47;4.88;;;;;;;24.45;66.22;100909.31;5086355;28;20063;-77
2021/07/19 06:51:06;;;;;;;7.57;5.32;;;;;;;24.56;66.19;100908.69;5074625;28;20457;-76
2021/07/19 06:53:51;;;;;;;10.35;4.15;;;;;;;24.76;64.89;100913.06;5079144;28;20036;-76
2021/07/19 06:56:37;;;;;;;6.40;4.50;;;;;;;24.74;65.96;100913.47;5087458;28;20395;-76
2021/07/19 06:59:23;;;;;;;7.90;4.95;;;;;;;24.81;65.58;100909.09;5101478;28;20064;-77
2021/07/19 07:02:09;;;;;;;7.80;4.55;;;;;;;25.06;65.64;100904.59;5098326;28;20524;-77
2021/07/19 07:04:54;;;;;;;8.00;4.22;;;;;;;25.24;63.55;100904.06;5098693;28;20110;-78
2021/07/19 07:07:40;;;;;;;5.47;4.47;;;;;;;25.40;63.25;100908.34;5101265;28;20032;-77
2021/07/19 07:10:26;;;;;;;7.07;4.80;;;;;;;25.46;64.50;100905.16;5098225;28;20064;-77
2021/07/19 07:13:12;;;;;;;4.28;3.63;;;;;;;25.62;63.31;100906.59;5084751;28;20115;-77
2021/07/19 07:15:58;;;;;;;5.13;4.30;;;;;;;25.71;63.83;100894.91;5069711;28;20059;-77
2021/07/19 07:18:44;;;;;;;6.40;4.60;;;;;;;25.82;62.83;100895.84;5087306;28;20039;-78
2021/07/19 07:21:31;;;;;;;6.10;4.25;;;;;;;25.94;62.57;100900.50;5093120;28;20036;-77
2021/07/19 07:24:16;;;;;;;7.30;4.45;;;;;;;26.01;63.24;100896.91;5100222;28;20032;-78
2021/07/19 07:27:02;;;;;;;8.82;4.18;;;;;;;26.18;62.79;100895.47;5086269;28;20050;-77
2021/07/19 07:29:48;;;;;;;6.50;4.38;;;;;;;26.25;62.61;100896.34;5112971;28;20032;-77
2021/07/19 07:32:35;;;;;;;7.35;4.82;;;;;;;26.44;61.64;100903.84;5097127;27;20445;-76
2021/07/19 07:35:21;;;;;;;6.68;4.28;;;;;;;26.49;61.96;100911.19;5085323;27;20043;-77
2021/07/19 07:38:08;;;;;;;5.45;4.07;;;;;;;26.74;61.10;100914.28;5085727;28;20052;-75
2021/07/19 07:40:53;;;;;;;8.90;4.93;;;;;;;26.79;60.54;100911.06;5082938;28;20070;-77
2021/07/19 07:43:39;;;;;;;5.10;3.45;;;;;;;27.05;59.59;100909.19;5097900;28;20023;-76
2021/07/19 07:46:25;;;;;;;5.43;3.90;;;;;;;27.21;59.19;100904.03;5100920;27;20032;-77
2021/07/19 07:49:11;;;;;;;4.20;3.80;;;;;;;27.29;59.75;100902.06;5093540;28;20047;-76
2021/07/19 07:51:58;;;;;;;8.45;4.28;;;;;;;27.28;58.94;100897.56;5072506;28;20039;-76
2021/07/19 07:54:44;;;;;;;6.60;4.63;;;;;;;27.23;59.50;100901.63;5073247;27;20495;-75
2021/07/19 07:57:30;;;;;;;6.47;4.50;;;;;;;27.42;59.49;100905.38;5084597;28;20092;-77
2021/07/19 08:00:17;;;;;;;6.88;4.60;;;;;;;27.49;59.69;100894.00;5083406;28;20040;-76
2021/07/19 08:03:03;;;;;;;5.97;3.92;;;;;;;27.71;58.01;100909.16;5089276;27;20086;-77
2021/07/19 08:05:49;;;;;;;3.58;3.25;;;;;;;27.93;57.44;100895.81;5097166;28;20088;-77
2021/07/19 08:08:34;;;;;;;5.30;3.78;;;;;;;27.97;58.98;100902.34;5089009;28;20040;-77
2021/07/19 08:11:20;;;;;;;7.53;4.68;;;;;;;27.98;57.33;100901.13;5091719;28;20023;-75
2021/07/19 08:14:06;;;;;;;4.85;3.60;;;;;;;28.28;56.50;100901.59;5081951;28;20036;-77
2021/07/19 08:16:52;;;;;;;5.80;3.88;;;;;;;28.42;56.50;100905.69;5098859;28;20122;-76
2021/07/19 08:19:38;;;;;;;6.72;4.18;;;;;;;28.51;56.28;100903.25;5078837;28;20047;-75
2021/07/19 08:22:24;;;;;;;6.05;3.72;;;;;;;28.67;56.18;100906.53;5082673;28;20088;-75
2021/07/19 08:25:10;;;;;;;4.60;3.60;;;;;;;28.81;55.26;100905.72;5094150;28;20023;-76
2021/07/19 08:27:56;;;;;;;7.00;4.18;;;;;;;28.92;55.23;100905.69;5066166;28;20035;-75
2021/07/19 08:30:42;;;;;;;7.85;3.92;;;;;;;28.97;54.91;100905.25;5090698;27;20039;-75
2021/07/19 08:33:28;;;;;;;7.97;5.00;;;;;;;28.81;55.32;100907.75;5063263;28;20448;-76
2021/07/19 08:36:13;;;;;;;7.00;4.03;;;;;;;28.90;55.01;100903.22;5097197;28;20050;-76
2021/07/19 08:38:59;;;;;;;8.52;5.13;;;;;;;28.80;55.36;100901.19;5091908;27;20027;-77
2021/07/19 08:41:45;;;;;;;7.72;4.53;;;;;;;28.80;55.78;100906.09;5098006;28;20030;-77
2021/07/19 08:44:31;;;;;;;8.63;4.57;;;;;;;28.79;55.00;100898.75;5088559;28;20039;-75
2021/07/19 08:47:19;;;;;;;5.70;4.40;;;;;;;29.00;54.22;100903.63;5109893;27;20040;-77
2021/07/19 08:50:06;;;;;;;5.43;3.90;;;;;;;29.13;54.37;100905.66;5086262;28;20101;-74
2021/07/19 08:52:53;;;;;;;6.97;3.83;;;;;;;29.14;54.06;100900.75;5057865;28;20712;-74
2021/07/19 08:55:39;;;;;;;7.90;4.20;;;;;;;29.16;54.33;100895.44;5052113;28;20150;-75
2021/07/19 08:58:25;;;;;;;6.90;4.00;;;;;;;29.19;53.74;100897.47;5047066;28;20534;-75
2021/07/19 09:01:12;;;;;;;6.75;4.20;;;;;;;29.34;54.65;100898.28;5054053;28;20024;-75
2021/07/19 09:03:57;;;;;;;7.25;4.05;;;;;;;29.55;53.94;100892.44;5052248;28;20028;-75
2021/07/19 09:06:44;;;;;;;8.38;4.35;;;;;;;29.58;53.00;100897.34;5074740;28;20092;-75
2021/07/19 09:09:31;;;;;;;7.80;4.53;;;;;;;29.49;52.61;100888.38;5047876;28;20033;-75
2021/07/19 09:12:17;;;;;;;6.00;3.80;;;;;;;29.81;52.73;100890.28;5037052;28;20386;-75
2021/07/19 09:15:05;;;;;;;8.50;4.43;;;;;;;30.02;52.37;100890.19;5042338;28;20032;-75
2021/07/19 09:17:55;;;;;;;7.35;4.30;;;;;;;30.14;52.70;100882.31;5063821;28;20028;-75
2021/07/19 09:20:42;;;;;;;4.47;3.88;;;;;;;30.28;52.41;100882.25;5063173;28;20460;-75
2021/07/19 09:23:29;;;;;;;8.07;4.00;;;;;;;30.43;52.00;100882.97;5076932;28;20604;-75
2021/07/19 09:26:14;;;;;;;10.18;4.45;;;;;;;30.54;51.88;100882.88;5064932;28;20032;-75
2021/07/19 09:29:01;;;;;;;6.72;4.03;;;;;;;30.69;51.80;100882.31;5047877;28;20027;-80
2021/07/19 09:31:53;;;;;;;6.00;3.92;;;;;;;30.86;50.05;100880.53;5052339;28;20043;-80
2021/07/19 09:34:41;;;;;;;;;;;;;;;31.00;49.14;100876.72;5046060;28;20044;-80
2021/07/19 09:37:27;;;;;;;7.13;3.72;;;;;;;31.12;49.04;100875.34;5084524;28;19999;-80
2021/07/19 09:40:13;;;;;;;6.85;4.32;;;;;;;31.26;49.36;100877.25;5054294;28;20089;-80
2021/07/19 09:42:59;;;;;;;6.38;4.00;;;;;;;31.04;48.84;100886.09;5050051;28;20123;-81
2021/07/19 09:45:45;;;;;;;9.38;3.60;;;;;;;31.20;48.16;100882.63;5061305;28;20028;-81
2021/07/19 09:48:32;;;;;;;9.88;3.60;;;;;;;31.41;47.66;100883.66;5090859;28;20062;-80
2021/07/19 09:51:27;;;;;;;6.13;3.47;;;;;;;31.43;47.39;100884.88;5095462;28;20055;-80
2021/07/19 09:54:13;;;;;;;8.15;3.53;;;;;;;31.57;47.23;100875.25;5128699;27;20167;-80
2021/07/19 09:57:00;;;;;;;7.82;3.58;;;;;;;31.55;46.40;100874.88;5111141;28;20063;-75
2021/07/19 09:59:51;;;;;;;5.95;3.55;;;;;;;31.36;47.00;100880.00;5093079;27;20117;-76
2021/07/19 10:02:40;;;;;;;8.23;3.70;;;;;;;31.46;47.15;100874.59;5096732;28;20503;-68
2021/07/19 10:05:30;;;;;;;10.65;3.95;;;;;;;31.49;46.88;100879.47;5100346;28;20517;-69
2021/07/19 10:08:22;;;;;;;6.68;3.53;;;;;;;31.56;45.79;100873.63;5107678;27;20038;-69
2021/07/19 10:11:15;;;;;;;6.65;3.28;;;;;;;31.61;46.19;100879.69;5114826;27;21943;-68
2021/07/19 10:14:01;;;;;;;7.00;3.67;;;;;;;31.57;46.27;100872.41;5107184;28;20040;-69
2021/07/19 10:16:47;;;;;;;6.38;3.55;;;;;;;31.75;46.31;100872.94;5099958;27;20027;-68
2021/07/19 10:19:35;;;;;;;7.95;3.67;;;;;;;31.78;45.17;100872.06;5103571;27;20039;-69
2021/07/19 10:22:20;;;;;;;5.35;3.15;;;;;;;31.80;46.01;100869.59;5104363;27;20074;-68
2021/07/19 10:25:07;;;;;;;4.82;3.33;;;;;;;31.85;46.59;100865.44;5100018;28;20119;-69
2021/07/19 10:27:52;;;;;;;7.38;3.60;;;;;;;32.05;47.00;100866.38;5117838;27;20055;-69
2021/07/19 10:30:39;;;;;;;6.63;3.78;;;;;;;32.02;46.46;100857.84;5094773;27;20031;-69
2021/07/19 10:33:25;;;;;;;9.57;3.40;;;;;;;32.17;46.29;100864.97;5093611;27;20110;-69
2021/07/19 10:36:11;;;;;;;6.15;3.60;;;;;;;32.34;45.17;100860.16;5106679;27;20031;-69
2021/07/19 10:39:06;;;;;;;7.35;3.45;;;;;;;32.21;43.29;100859.19;5101346;27;20099;-68
2021/07/19 10:42:03;;;;;;;7.60;3.63;;;;;;;32.38;43.83;100854.38;5108228;27;20035;-69
2021/07/19 10:44:49;;;;;;;6.70;3.30;;;;;;;32.49;43.47;100852.16;5109691;28;20102;-69
2021/07/19 10:47:54;;;;;;;7.88;3.15;;;;;;;32.53;44.12;100852.91;5116437;27;20035;-68
2021/07/19 10:50:40;;;;;;;9.07;3.85;;;;;;;32.54;43.22;100854.56;5097388;27;20043;-69
2021/07/19 10:53:31;;;;;;;6.82;3.55;;;;;;;32.66;44.43;100856.78;5104599;28;20696;-69
2021/07/19 10:56:17;;;;;;;7.05;3.72;;;;;;;32.82;44.53;100846.63;5117257;27;20129;-69
2021/07/19 10:59:03;;;;;;;8.30;3.42;;;;;;;33.00;43.54;100850.00;5101283;27;20043;-69
2021/07/19 11:01:53;;;;;;;10.85;3.25;;;;;;;33.09;43.44;100846.53;5102775;27;20066;-75
2021/07/19 11:04:46;;;;;;;6.97;3.22;;;;;;;33.24;43.67;100839.25;5092206;27;20464;-73
2021/07/19 11:07:41;;;;;;;7.13;3.55;;;;;;;33.23;42.55;100834.75;5124512;27;20038;-73
2021/07/19 11:10:27;;;;;;;6.22;3.85;;;;;;;33.08;43.32;100833.44;5102673;27;20038;-73
2021/07/19 11:13:29;;;;;;;5.00;3.13;;;;;;;33.41;43.00;100834.38;5108158;27;20583;-74
2021/07/19 11:16:15;;;;;;;6.53;3.43;;;;;;;33.52;43.03;100834.16;5132851;27;20038;-74
2021/07/19 11:19:02;;;;;;;6.03;3.60;;;;;;;33.57;42.14;100837.34;5102016;27;20031;-74
2021/07/19 11:21:48;;;;;;;6.93;3.58;;;;;;;33.63;41.86;100828.16;5118623;27;20038;-73
2021/07/19 11:24:47;;;;;;;5.55;3.50;;;;;;;33.70;40.56;100823.06;5090138;27;20429;-72
2021/07/19 11:27:38;;;;;;;6.75;4.05;;;;;;;33.59;42.40;100817.53;5114507;27;20035;-72
2021/07/19 11:30:25;;;;;;;10.90;7.57;;;;;;;33.75;42.29;100818.84;5101910;27;20162;-73
2021/07/19 11:33:11;;;;;;;5.82;3.42;;;;;;;33.48;40.63;100810.38;5090719;27;20407;-73
2021/07/19 11:35:57;;;;;;;7.15;4.28;;;;;;;33.59;40.90;100817.53;5115788;27;20039;-72
2021/07/19 11:38:43;;;;;;;6.47;3.92;;;;;;;33.60;42.08;100812.63;5103321;27;20038;-73
2021/07/19 11:41:31;;;;;;;6.93;4.30;;;;;;;33.66;41.11;100815.78;5134150;27;20117;-72
2021/07/19 11:44:17;;;;;;;8.45;4.65;;;;;;;33.73;41.56;100815.59;5118187;27;20046;-72
2021/07/19 11:47:04;;;;;;;8.68;4.28;;;;;;;33.70;40.22;100814.41;5108138;28;20123;-72
2021/07/19 11:49:50;;;;;;;6.53;3.53;;;;;;;33.74;41.68;100805.69;5103784;27;20058;-72
2021/07/19 11:52:38;;;;;;;5.55;3.22;;;;;;;33.80;42.21;100804.72;5105883;27;20474;-72
2021/07/19 11:55:24;;;;;;;5.68;3.50;;;;;;;33.70;40.56;100810.72;5103768;27;20486;-72
2021/07/19 11:58:10;;;;;;;6.25;3.20;;;;;;;33.68;39.50;100801.72;5114492;27;20062;-73
2021/07/19 12:01:00;;;;;;;8.50;3.63;;;;;;;33.70;41.15;100802.09;5116786;27;20039;-73
2021/07/19 12:03:51;;;;;;;9.70;3.20;;;;;;;33.47;40.58;100800.13;5091323;27;20033;-72
2021/07/19 12:06:37;;;;;;;7.55;3.60;;;;;;;33.39;40.05;100802.34;5100534;27;20113;-76
2021/07/19 12:09:23;;;;;;;5.25;3.17;;;;;;;33.54;37.78;100797.09;5101221;27;20118;-76
2021/07/19 12:12:11;;;;;;;7.18;2.92;;;;;;;33.63;38.38;100793.59;5087412;27;20120;-77
2021/07/19 12:15:00;;;;;;;7.72;2.92;;;;;;;33.83;40.38;100794.38;5105713;27;20038;-76
2021/07/19 12:17:46;;;;;;;6.75;3.72;;;;;;;33.86;39.48;100793.47;5115990;27;20546;-77
2021/07/19 12:20:34;;;;;;;7.15;3.03;;;;;;;33.96;38.62;100795.28;5117117;27;20031;-78
2021/07/19 12:23:20;;;;;;;5.25;3.00;;;;;;;34.03;36.45;100795.09;5132800;27;20031;-78
2021/07/19 12:26:06;;;;;;;9.65;3.30;;;;;;;34.05;37.08;100788.94;5104032;27;20043;-77
2021/07/19 12:28:55;;;;;;;5.18;2.75;;;;;;;33.93;37.22;100792.47;5119594;27;20053;-77
2021/07/19 12:31:44;;;;;;;9.43;3.10;;;;;;;33.98;36.46;100775.47;5105945;27;20039;-77
2021/07/19 12:34:32;;;;;;;9.45;2.88;;;;;;;34.10;36.71;100770.28;5131165;27;20041;-77
2021/07/19 12:37:18;;;;;;;6.57;2.92;;;;;;;34.29;37.93;100771.44;5100613;27;20046;-78
2021/07/19 12:40:05;;;;;;;8.35;3.45;;;;;;;34.29;37.42;100777.19;5134254;27;20435;-78
2021/07/19 12:42:51;;;;;;;6.28;3.00;;;;;;;34.31;37.79;100777.56;5086963;28;20071;-77
2021/07/19 12:45:38;;;;;;;6.75;2.75;;;;;;;34.34;35.74;100765.94;5090861;27;20029;-77
2021/07/19 12:48:24;;;;;;;8.30;2.90;;;;;;;34.14;37.60;100765.25;5130772;27;20019;-77
2021/07/19 12:51:10;;;;;;;8.20;3.00;;;;;;;34.46;38.35;100752.84;5092942;27;20039;-77
2021/07/19 12:54:00;;;;;;;6.63;3.15;;;;;;;34.29;35.44;100763.59;5130657;27;20104;-77
2021/07/19 12:56:49;;;;;;;8.70;2.78;;;;;;;34.22;34.42;100755.16;5130101;27;20484;-78
2021/07/19 12:59:35;;;;;;;7.22;3.40;;;;;;;34.51;35.99;100748.59;5127703;27;20067;-77